createdAt,value
2022-12-07T00:00:23.043Z,35.70
2022-12-07T00:05:28.443Z,34.72
2022-12-07T00:10:32.489Z,35.88
2022-12-07T00:15:37.142Z,37.00
2022-12-07T00:20:42.429Z,36.83
2022-12-07T00:25:46.356Z,33.83
2022-12-07T00:30:50.276Z,37.30
2022-12-07T00:35:59.069Z,36.67
2022-12-07T00:41:05.280Z,33.25
2022-12-07T00:46:09.499Z,35.28
2022-12-07T00:51:16.513Z,34.38
2022-12-07T00:56:21.990Z,34.10
2022-12-07T01:01:27.168Z,31.70
2022-12-07T01:06:32.924Z,22.30
2022-12-07T01:11:36.776Z,33.38
2022-12-07T01:16:41.230Z,31.63
2022-12-07T01:21:46.584Z,34.13
2022-12-07T01:26:51.622Z,31.13
2022-12-07T01:31:55.544Z,18.47
2022-12-07T01:37:00.879Z,32.42
2022-12-07T01:42:04.898Z,17.17
2022-12-07T01:47:09.280Z,28.10
2022-12-07T01:52:18.733Z,32.88
2022-12-07T01:57:23.364Z,30.17
2022-12-07T02:02:29.699Z,31.30
2022-12-07T02:07:36.467Z,31.27
2022-12-07T02:12:40.405Z,33.63
2022-12-07T02:17:50.139Z,32.47
2022-12-07T02:23:22.125Z,26.73
2022-12-07T02:28:30.860Z,28.45
2022-12-07T02:33:38.872Z,31.40
2022-12-07T02:38:47.871Z,28.38
2022-12-07T02:43:54.590Z,30.23
2022-12-07T02:49:00.744Z,29.30
2022-12-07T02:54:04.820Z,29.25
2022-12-07T02:59:14.789Z,29.58
2022-12-07T03:04:31.691Z,27.77
2022-12-07T03:09:40.283Z,28.15
2022-12-07T03:14:48.145Z,29.50
2022-12-07T03:19:55.625Z,25.17
2022-12-07T03:25:01.744Z,28.08
2022-12-07T03:30:08.313Z,33.13
2022-12-07T03:35:18.049Z,28.65
2022-12-07T03:40:26.543Z,27.45
2022-12-07T03:45:35.376Z,29.42
2022-12-07T03:50:45.234Z,25.45
2022-12-07T03:55:50.042Z,28.90
2022-12-07T04:00:54.422Z,30.02
2022-12-07T04:05:59.944Z,29.13
2022-12-07T04:11:04.010Z,25.48
2022-12-07T04:16:08.106Z,29.17
2022-12-07T04:21:13.503Z,30.80
2022-12-07T04:26:17.494Z,31.75
2022-12-07T04:31:21.469Z,29.42
2022-12-07T04:36:26.916Z,28.58
2022-12-07T04:41:30.897Z,29.25
2022-12-07T04:46:34.822Z,27.75
2022-12-07T04:51:40.190Z,26.95
2022-12-07T04:56:44.591Z,26.15
2022-12-07T05:01:48.596Z,29.25
2022-12-07T05:06:54.000Z,27.50
2022-12-07T05:11:57.906Z,25.10
2022-12-07T05:17:01.853Z,24.58
2022-12-07T05:22:07.285Z,24.10
2022-12-07T05:27:11.216Z,23.58
2022-12-07T05:32:15.174Z,25.45
2022-12-07T05:37:20.496Z,25.92
2022-12-07T05:42:24.358Z,14.05
2022-12-07T05:47:28.274Z,26.45
2022-12-07T05:52:33.662Z,24.33
2022-12-07T05:57:37.688Z,28.58
2022-12-07T06:02:41.857Z,27.17
2022-12-07T06:07:47.375Z,28.50
2022-12-07T06:12:51.307Z,28.58
2022-12-07T06:17:55.340Z,29.73
2022-12-07T06:23:00.700Z,33.05
2022-12-07T06:28:04.581Z,31.20
2022-12-07T06:33:08.602Z,38.67
2022-12-07T06:38:13.886Z,36.78
2022-12-07T06:43:17.920Z,30.75
2022-12-07T06:48:21.816Z,31.00
2022-12-07T06:53:27.210Z,34.13
2022-12-07T06:58:31.218Z,31.00
2022-12-07T07:03:35.258Z,30.35
2022-12-07T07:08:41.133Z,31.77
2022-12-07T07:18:48.986Z,28.27
2022-12-07T07:23:54.305Z,29.30
2022-12-07T07:28:58.288Z,26.48
2022-12-07T07:34:02.205Z,33.83
2022-12-07T07:39:07.513Z,29.63
2022-12-07T07:44:12.147Z,23.85
2022-12-07T07:49:16.307Z,22.13
2022-12-07T07:54:21.583Z,18.75
2022-12-07T07:59:26.373Z,21.00
2022-12-07T08:04:30.290Z,16.98
2022-12-07T08:09:35.679Z,24.52
2022-12-07T08:14:39.619Z,18.08
2022-12-07T08:19:43.602Z,23.23
2022-12-07T08:24:48.940Z,15.77
2022-12-07T08:29:52.868Z,28.05
2022-12-07T08:34:56.750Z,31.35
2022-12-07T08:40:02.481Z,26.27
2022-12-07T08:50:12.709Z,19.30
2022-12-07T08:55:18.068Z,21.05
2022-12-07T09:00:22.587Z,15.63
2022-12-07T09:05:26.753Z,16.98
2022-12-07T09:10:32.457Z,28.65
2022-12-07T09:15:36.522Z,5.90
2022-12-07T09:20:40.537Z,8.48
2022-12-07T09:25:46.034Z,19.38
2022-12-07T09:31:22.270Z,7.30
2022-12-07T09:36:15.171Z,8.02
2022-12-07T09:41:20.875Z,8.40
2022-12-07T09:46:24.908Z,8.43
2022-12-07T09:51:29.020Z,23.45
2022-12-07T09:56:34.619Z,14.98
2022-12-07T10:01:41.137Z,19.40
2022-12-07T10:06:46.645Z,7.10
2022-12-07T10:12:10.485Z,8.43
2022-12-07T10:17:32.035Z,5.78
2022-12-07T10:22:36.140Z,25.80
2022-12-07T10:27:41.639Z,7.07
2022-12-07T10:32:45.653Z,8.05
2022-12-07T10:37:49.911Z,5.90
2022-12-07T10:43:05.372Z,4.40
2022-12-07T10:48:13.022Z,4.90
2022-12-07T10:53:30.834Z,10.45
2022-12-07T10:58:47.928Z,7.35
2022-12-07T11:04:07.302Z,23.67
2022-12-07T11:10:06.904Z,5.75
2022-12-07T11:15:04.481Z,4.43
2022-12-07T11:20:19.472Z,9.63
2022-12-07T11:25:29.051Z,7.72
2022-12-07T11:30:37.288Z,18.83
2022-12-07T11:35:51.088Z,7.40
2022-12-07T11:41:14.208Z,18.25
2022-12-07T11:46:20.169Z,12.55
2022-12-07T11:51:29.019Z,13.73
2022-12-07T11:56:38.969Z,10.80
2022-12-07T12:01:53.628Z,20.13
2022-12-07T12:06:57.738Z,18.33
2022-12-07T12:18:14.437Z,30.57
2022-12-07T12:23:20.930Z,28.10
2022-12-07T12:28:29.202Z,20.08
2022-12-07T12:33:35.030Z,24.00
2022-12-07T12:43:54.891Z,23.02
2022-12-07T12:49:46.431Z,25.17
2022-12-07T12:55:02.449Z,19.65
2022-12-07T13:00:19.209Z,23.40
2022-12-07T13:05:28.364Z,21.65
2022-12-07T13:10:46.995Z,22.27
2022-12-07T13:15:51.830Z,21.95
2022-12-07T13:20:58.387Z,26.38
2022-12-07T13:26:20.066Z,26.17
2022-12-07T13:31:35.766Z,26.73
2022-12-07T13:36:42.025Z,25.48
2022-12-07T13:41:46.171Z,20.15
2022-12-07T13:46:55.918Z,25.75
2022-12-07T13:52:17.242Z,26.25
2022-12-07T13:57:21.317Z,26.20
2022-12-07T14:02:34.120Z,26.60
2022-12-07T14:07:51.956Z,27.83
2022-12-07T14:12:56.767Z,22.50
2022-12-07T14:18:04.556Z,20.95
2022-12-07T14:23:25.935Z,23.00
2022-12-07T14:28:31.809Z,25.08
2022-12-07T14:38:40.874Z,32.63
2022-12-07T14:44:00.233Z,27.35
2022-12-07T14:54:34.690Z,29.83
2022-12-07T14:59:43.259Z,22.20
2022-12-07T15:04:48.863Z,23.98
2022-12-07T15:09:54.371Z,30.95
2022-12-07T15:14:58.389Z,26.40
2022-12-07T15:20:02.567Z,32.72
2022-12-07T15:25:08.447Z,26.33
2022-12-07T15:35:16.452Z,29.88
2022-12-07T15:40:21.859Z,24.98
2022-12-07T15:45:25.826Z,28.05
2022-12-07T15:50:29.808Z,27.98
2022-12-07T15:55:35.093Z,32.63
2022-12-07T16:00:39.174Z,30.38
2022-12-07T16:05:43.110Z,31.35
2022-12-07T16:10:48.379Z,33.22
2022-12-07T16:15:52.344Z,34.00
2022-12-07T16:20:56.322Z,34.28
2022-12-07T16:26:08.744Z,35.20
2022-12-07T16:31:14.618Z,34.90
2022-12-07T16:41:44.001Z,34.58
2022-12-07T16:46:50.653Z,30.17
2022-12-07T16:52:18.161Z,32.95
2022-12-07T16:57:23.447Z,33.90
2022-12-07T17:02:29.159Z,38.28
2022-12-07T17:07:33.135Z,36.17
2022-12-07T17:12:38.725Z,37.00
2022-12-07T17:17:42.742Z,36.85
2022-12-07T17:22:46.838Z,37.90
2022-12-07T17:27:52.203Z,41.72
2022-12-07T17:32:56.190Z,38.85
2022-12-07T17:38:00.113Z,36.83
2022-12-07T17:43:05.343Z,37.83
2022-12-07T17:48:09.217Z,37.33
2022-12-07T17:53:13.856Z,36.85
2022-12-07T17:58:19.368Z,42.05
2022-12-07T18:03:23.323Z,37.28
2022-12-07T18:08:27.581Z,36.35
2022-12-07T18:13:37.098Z,38.05
2022-12-07T18:18:45.281Z,36.28
2022-12-07T18:23:53.340Z,42.22
2022-12-07T18:29:00.232Z,37.35
2022-12-07T18:34:05.149Z,36.53
2022-12-07T18:39:09.687Z,35.72
2022-12-07T18:44:15.028Z,36.38
2022-12-07T18:49:18.935Z,21.55
2022-12-07T18:54:22.866Z,36.53
2022-12-07T18:59:45.256Z,33.90
2022-12-07T19:04:49.185Z,34.20
2022-12-07T19:09:53.015Z,35.33
2022-12-07T19:14:58.320Z,34.47
2022-12-07T19:20:02.151Z,34.35
2022-12-07T19:25:06.823Z,34.78
2022-12-07T19:30:12.995Z,31.23
2022-12-07T19:35:16.983Z,32.70
2022-12-07T19:40:20.974Z,36.42
2022-12-07T19:45:29.241Z,35.97
2022-12-07T19:50:33.285Z,35.10
2022-12-07T19:55:40.675Z,34.95
2022-12-07T20:00:46.096Z,41.03
2022-12-07T20:05:49.925Z,35.42
2022-12-07T20:10:54.210Z,37.80
2022-12-07T20:16:18.492Z,39.45
2022-12-07T20:21:23.332Z,22.05
2022-12-07T20:26:27.203Z,39.25
2022-12-07T20:31:32.448Z,40.10
2022-12-07T20:36:36.305Z,36.40
2022-12-07T20:41:57.657Z,37.92
2022-12-07T20:47:03.029Z,40.65
2022-12-07T20:52:06.810Z,39.97
2022-12-07T20:57:10.587Z,38.42
2022-12-07T21:02:15.927Z,40.70
2022-12-07T21:07:20.011Z,40.72
2022-12-07T21:12:23.879Z,39.55
2022-12-07T21:17:29.113Z,39.50
2022-12-07T21:22:32.946Z,29.90
2022-12-07T21:27:36.828Z,40.42
2022-12-07T21:32:42.004Z,44.08
2022-12-07T21:37:45.777Z,39.23
2022-12-07T21:42:50.329Z,40.90
2022-12-07T21:47:55.355Z,39.10
2022-12-07T21:53:00.353Z,40.77
2022-12-07T21:58:04.301Z,37.60
2022-12-07T22:03:10.054Z,42.60
2022-12-07T22:08:13.982Z,40.35
2022-12-07T22:13:17.948Z,40.60
2022-12-07T22:18:23.222Z,39.45
2022-12-07T22:23:27.268Z,27.30
2022-12-07T22:28:31.101Z,40.67
2022-12-07T22:33:36.893Z,38.83
2022-12-07T22:43:44.511Z,38.78
2022-12-07T22:48:49.897Z,38.88
2022-12-07T22:53:54.431Z,37.30
2022-12-07T22:58:58.545Z,37.85
2022-12-07T23:04:03.822Z,39.83
2022-12-07T23:09:10.214Z,36.75
2022-12-07T23:14:16.143Z,38.88
2022-12-07T23:24:25.392Z,39.83
2022-12-07T23:29:29.110Z,36.10
2022-12-07T23:34:34.513Z,35.83
2022-12-07T23:39:38.373Z,35.03
2022-12-07T23:44:42.293Z,35.35
2022-12-07T23:49:47.564Z,35.05
2022-12-07T23:54:51.546Z,35.00
2022-12-07T23:59:55.384Z,38.03
